Time;durP1;ratioP1;P1;durP2;ratioP2;P2;SDS_P1;SDS_P2;PMS_P1;PMS_P2;Temp;Humidity;BMP_temperature;BMP_pressure;BME280_temperature;BME280_humidity;BME280_pressure;Samples;Min_cycle;Max_cycle;Signal;HPM_P1;HPM_P2
2024/01/09 00:01:06;;;;;;;27.02;13.95;;;;;;;;;;4952391;28;20019;-75
2024/01/09 00:03:32;;;;;;;29.70;13.00;;;;;;;;;;4951862;28;20043;-75
2024/01/09 00:05:58;;;;;;;24.65;11.55;;;;;;;;;;4952658;29;20472;-74
2024/01/09 00:08:25;;;;;;;28.95;13.27;;;;;;;;;;4952430;28;20023;-75
2024/01/09 00:10:51;;;;;;;25.77;12.65;;;;;;;;;;4952698;29;20114;-76
2024/01/09 00:13:17;;;;;;;24.02;12.00;;;;;;;;;;4951370;29;20428;-75
2024/01/09 00:15:43;;;;;;;29.88;13.85;;;;;;;;;;4952172;28;20034;-75
2024/01/09 00:18:09;;;;;;;27.30;12.02;;;;;;;;;;4951224;28;20022;-74
2024/01/09 00:20:35;;;;;;;27.30;12.88;;;;;;;;;;4952085;29;20034;-75
2024/01/09 00:23:01;;;;;;;24.45;12.75;;;;;;;;;;4951382;29;20031;-75
2024/01/09 00:25:28;;;;;;;28.25;11.90;;;;;;;;;;4951225;29;20030;-74
2024/01/09 00:27:54;;;;;;;26.23;11.85;;;;;;;;;;4951802;28;20050;-75
2024/01/09 00:30:20;;;;;;;22.55;12.10;;;;;;;;;;4951225;29;20027;-75
2024/01/09 00:32:48;;;;;;;26.55;12.25;;;;;;;;;;4952004;28;20101;-75
2024/01/09 00:35:15;;;;;;;24.45;12.20;;;;;;;;;;4950870;28;20496;-75
2024/01/09 00:37:41;;;;;;;23.05;11.63;;;;;;;;;;4951898;29;20156;-74
2024/01/09 00:40:08;;;;;;;24.35;11.57;;;;;;;;;;4951884;29;20098;-75
2024/01/09 00:42:34;;;;;;;24.98;11.32;;;;;;;;;;4952092;28;20107;-76
2024/01/09 00:45:03;;;;;;;27.00;12.00;;;;;;;;;;4951395;29;20455;-74
2024/01/09 00:47:29;;;;;;;25.15;12.15;;;;;;;;;;4950800;29;20035;-75
2024/01/09 00:49:55;;;;;;;25.83;11.45;;;;;;;;;;4951997;28;20019;-75
2024/01/09 00:52:21;;;;;;;23.35;11.20;;;;;;;;;;4950699;29;20045;-75
2024/01/09 00:54:47;;;;;;;24.15;11.18;;;;;;;;;;4951772;28;20023;-75
2024/01/09 00:57:13;;;;;;;24.10;11.85;;;;;;;;;;4950601;29;20035;-76
2024/01/09 00:59:39;;;;;;;27.70;12.63;;;;;;;;;;4950757;28;20085;-76
2024/01/09 01:02:05;;;;;;;24.80;11.50;;;;;;;;;;4949456;28;20051;-74
2024/01/09 01:04:31;;;;;;;23.85;11.07;;;;;;;;;;4963221;28;20077;-75
2024/01/09 01:06:58;;;;;;;28.25;12.55;;;;;;;;;;4964891;28;20027;-74
2024/01/09 01:09:24;;;;;;;27.75;11.52;;;;;;;;;;4964054;28;20050;-75
2024/01/09 01:11:50;;;;;;;24.13;12.07;;;;;;;;;;4964439;28;20054;-76
2024/01/09 01:14:16;;;;;;;27.27;11.68;;;;;;;;;;4960647;28;20054;-76
2024/01/09 01:16:42;;;;;;;25.27;11.75;;;;;;;;;;4960114;28;20082;-74
2024/01/09 01:19:08;;;;;;;25.85;11.43;;;;;;;;;;4955475;28;20031;-75
2024/01/09 01:21:34;;;;;;;23.75;11.63;;;;;;;;;;4948877;28;20483;-75
2024/01/09 01:24:00;;;;;;;27.98;12.15;;;;;;;;;;4954713;28;20046;-74
2024/01/09 01:26:26;;;;;;;23.23;11.60;;;;;;;;;;4955709;28;20074;-74
2024/01/09 01:28:52;;;;;;;26.55;12.10;;;;;;;;;;4955214;28;20019;-76
2024/01/09 01:31:18;;;;;;;23.00;11.10;;;;;;;;;;4954775;28;20489;-75
2024/01/09 01:33:44;;;;;;;27.05;12.50;;;;;;;;;;4954786;29;20447;-76
2024/01/09 01:36:16;;;;;;;28.65;13.57;;;;;;;;;;4955057;28;20035;-76
2024/01/09 01:38:43;;;;;;;26.65;12.77;;;;;;;;;;4944499;28;20170;-76
2024/01/09 01:41:09;;;;;;;25.52;11.50;;;;;;;;;;4957586;28;20098;-76
2024/01/09 01:43:35;;;;;;;27.20;12.20;;;;;;;;;;4954529;28;20448;-75
2024/01/09 01:46:05;;;;;;;25.10;11.45;;;;;;;;;;4954234;28;20032;-76
2024/01/09 01:48:32;;;;;;;26.42;12.27;;;;;;;;;;4954845;28;20036;-75
2024/01/09 01:50:58;;;;;;;23.42;11.77;;;;;;;;;;4955427;28;20175;-75
2024/01/09 01:53:24;;;;;;;25.70;12.68;;;;;;;;;;4954516;28;20031;-72
2024/01/09 01:55:50;;;;;;;22.90;11.35;;;;;;;;;;4955462;28;20079;-74
2024/01/09 01:58:17;;;;;;;22.95;11.10;;;;;;;;;;4953950;28;20027;-75
2024/01/09 02:00:43;;;;;;;24.60;12.02;;;;;;;;;;4954924;28;20024;-74
2024/01/09 02:03:11;;;;;;;24.08;11.65;;;;;;;;;;4944648;29;20044;-74
2024/01/09 02:05:37;;;;;;;26.75;11.68;;;;;;;;;;4935573;29;20055;-75
2024/01/09 02:08:03;;;;;;;24.90;11.45;;;;;;;;;;4934698;29;20026;-74
2024/01/09 02:10:29;;;;;;;22.48;10.85;;;;;;;;;;4935364;29;20030;-75
2024/01/09 02:12:55;;;;;;;23.27;11.15;;;;;;;;;;4934907;29;20032;-74
2024/01/09 02:15:21;;;;;;;24.60;12.65;;;;;;;;;;4934802;29;20466;-74
2024/01/09 02:17:47;;;;;;;22.02;11.13;;;;;;;;;;4935245;29;20038;-73
2024/01/09 02:20:13;;;;;;;24.08;11.95;;;;;;;;;;4933585;29;20040;-73
2024/01/09 02:22:39;;;;;;;26.63;11.75;;;;;;;;;;4935033;29;20028;-73
2024/01/09 02:25:06;;;;;;;25.58;12.40;;;;;;;;;;4934642;29;20429;-73
2024/01/09 02:27:32;;;;;;;28.23;12.02;;;;;;;;;;4934663;29;20031;-74
2024/01/09 02:29:58;;;;;;;23.50;11.35;;;;;;;;;;4934802;29;20024;-73
2024/01/09 02:32:25;;;;;;;23.73;11.30;;;;;;;;;;4934047;29;20086;-73
2024/01/09 02:34:51;;;;;;;26.02;11.95;;;;;;;;;;4935066;29;20051;-73
2024/01/09 02:37:17;;;;;;;23.80;12.15;;;;;;;;;;4933513;29;20393;-73
2024/01/09 02:39:43;;;;;;;25.75;11.95;;;;;;;;;;4935148;29;20019;-73
2024/01/09 02:42:09;;;;;;;26.02;12.88;;;;;;;;;;4934009;29;20027;-73
2024/01/09 02:44:35;;;;;;;25.92;11.02;;;;;;;;;;4934977;29;20039;-74
2024/01/09 02:47:01;;;;;;;28.33;13.05;;;;;;;;;;4933972;29;20036;-74
2024/01/09 02:49:27;;;;;;;23.63;11.77;;;;;;;;;;4934454;29;20034;-74
2024/01/09 02:51:54;;;;;;;25.15;12.02;;;;;;;;;;4935181;29;20035;-74
2024/01/09 02:54:20;;;;;;;23.90;11.45;;;;;;;;;;4931794;29;20035;-75
2024/01/09 02:56:46;;;;;;;28.13;13.00;;;;;;;;;;4934545;29;20079;-75
2024/01/09 02:59:12;;;;;;;29.13;12.35;;;;;;;;;;4933735;29;20026;-75
2024/01/09 03:01:38;;;;;;;24.63;11.85;;;;;;;;;;4935579;29;20047;-75
2024/01/09 03:04:04;;;;;;;23.42;11.90;;;;;;;;;;4952298;29;20473;-75
2024/01/09 03:06:30;;;;;;;24.90;12.27;;;;;;;;;;4954034;28;20043;-75
2024/01/09 03:08:56;;;;;;;24.35;11.82;;;;;;;;;;4953479;28;20027;-75
2024/01/09 03:11:22;;;;;;;23.90;11.32;;;;;;;;;;4951494;28;20038;-75
2024/01/09 03:13:48;;;;;;;28.55;12.57;;;;;;;;;;4953104;29;20035;-74
2024/01/09 03:16:14;;;;;;;25.65;12.15;;;;;;;;;;4953300;28;20058;-75
2024/01/09 03:18:41;;;;;;;25.75;11.75;;;;;;;;;;4953529;28;20109;-75
2024/01/09 03:21:07;;;;;;;25.90;11.40;;;;;;;;;;4952881;28;20020;-75
2024/01/09 03:23:33;;;;;;;27.13;12.52;;;;;;;;;;4949932;29;20026;-75
2024/01/09 03:25:59;;;;;;;27.88;13.05;;;;;;;;;;4953026;28;20387;-74
2024/01/09 03:28:26;;;;;;;25.63;12.80;;;;;;;;;;4951547;28;20042;-74
2024/01/09 03:30:52;;;;;;;30.60;12.80;;;;;;;;;;4953799;29;20034;-74
2024/01/09 03:33:18;;;;;;;29.42;13.40;;;;;;;;;;4952096;28;20027;-74
2024/01/09 03:35:44;;;;;;;24.10;11.48;;;;;;;;;;4953143;29;20487;-75
2024/01/09 03:38:10;;;;;;;26.52;13.23;;;;;;;;;;4952078;29;20023;-74
2024/01/09 03:40:36;;;;;;;26.20;12.25;;;;;;;;;;4953144;28;20406;-74
2024/01/09 03:43:03;;;;;;;26.08;12.10;;;;;;;;;;4952097;28;20046;-75
2024/01/09 03:45:29;;;;;;;27.15;12.50;;;;;;;;;;4953017;28;20093;-74
2024/01/09 03:47:56;;;;;;;28.17;12.38;;;;;;;;;;4952701;29;20031;-75
2024/01/09 03:50:22;;;;;;;25.98;11.77;;;;;;;;;;4950526;28;20027;-75
2024/01/09 03:52:48;;;;;;;23.88;12.43;;;;;;;;;;4948950;28;20042;-74
2024/01/09 03:55:15;;;;;;;29.08;12.25;;;;;;;;;;4952294;28;20015;-74
2024/01/09 03:57:42;;;;;;;28.05;11.82;;;;;;;;;;4952299;28;20488;-74
2024/01/09 04:00:08;;;;;;;26.50;11.90;;;;;;;;;;4952521;28;20046;-74
2024/01/09 04:02:34;;;;;;;26.08;11.57;;;;;;;;;;4952182;28;20141;-74
2024/01/09 04:05:00;;;;;;;24.95;11.35;;;;;;;;;;4948019;29;20038;-73
2024/01/09 04:07:26;;;;;;;30.80;12.27;;;;;;;;;;4952451;28;20039;-75
2024/01/09 04:09:52;;;;;;;21.50;10.27;;;;;;;;;;4953650;29;20034;-75
2024/01/09 04:12:18;;;;;;;25.98;11.20;;;;;;;;;;4952162;28;20027;-75
2024/01/09 04:14:44;;;;;;;28.38;11.40;;;;;;;;;;4952319;28;20087;-75
2024/01/09 04:17:11;;;;;;;23.88;11.07;;;;;;;;;;4952234;28;20031;-74
2024/01/09 04:19:38;;;;;;;28.65;11.30;;;;;;;;;;4960020;28;20413;-74
2024/01/09 04:22:04;;;;;;;22.05;11.55;;;;;;;;;;4951868;28;20026;-74
2024/01/09 04:24:30;;;;;;;25.98;11.40;;;;;;;;;;4952281;29;20019;-74
2024/01/09 04:26:57;;;;;;;24.90;11.15;;;;;;;;;;4945719;28;20082;-74
2024/01/09 04:29:24;;;;;;;24.05;11.27;;;;;;;;;;4951448;28;20023;-74
2024/01/09 04:31:50;;;;;;;26.05;10.88;;;;;;;;;;4953040;29;20373;-74
2024/01/09 04:34:16;;;;;;;31.67;12.05;;;;;;;;;;4951395;28;20079;-74
2024/01/09 04:36:41;;;;;;;25.05;11.32;;;;;;;;;;4952285;28;20039;-74
2024/01/09 04:39:07;;;;;;;26.48;11.32;;;;;;;;;;4951416;28;20077;-74
2024/01/09 04:41:33;;;;;;;28.42;12.15;;;;;;;;;;4953562;28;20060;-75
2024/01/09 04:43:59;;;;;;;23.75;10.25;;;;;;;;;;4955178;29;20473;-75
2024/01/09 04:46:26;;;;;;;22.65;11.82;;;;;;;;;;4954971;29;20042;-74
2024/01/09 04:48:52;;;;;;;23.35;10.85;;;;;;;;;;4955347;28;20015;-74
2024/01/09 04:51:18;;;;;;;24.73;10.90;;;;;;;;;;4955920;28;20027;-75
2024/01/09 04:53:44;;;;;;;23.58;10.88;;;;;;;;;;4956206;28;20027;-76
2024/01/09 04:56:10;;;;;;;28.70;11.55;;;;;;;;;;4955767;29;20161;-76
2024/01/09 04:58:36;;;;;;;25.13;11.18;;;;;;;;;;4955834;28;20350;-76
2024/01/09 05:01:02;;;;;;;23.20;11.00;;;;;;;;;;4955467;28;20026;-75
2024/01/09 05:03:28;;;;;;;24.20;10.57;;;;;;;;;;4954910;28;20059;-76
2024/01/09 05:05:54;;;;;;;23.25;10.35;;;;;;;;;;4955872;29;20354;-74
2024/01/09 05:08:20;;;;;;;22.77;10.75;;;;;;;;;;4954753;28;20031;-75
2024/01/09 05:10:46;;;;;;;21.40;10.07;;;;;;;;;;4955961;28;20083;-74
2024/01/09 05:13:12;;;;;;;23.13;10.90;;;;;;;;;;4954582;29;20027;-74
2024/01/09 05:15:38;;;;;;;23.27;10.45;;;;;;;;;;4955936;29;20421;-75
2024/01/09 05:18:04;;;;;;;20.00;9.75;;;;;;;;;;4954644;28;20058;-74
2024/01/09 05:20:30;;;;;;;25.67;11.55;;;;;;;;;;4955402;29;20489;-75
2024/01/09 05:22:56;;;;;;;21.42;10.02;;;;;;;;;;4955095;28;20122;-75
2024/01/09 05:25:22;;;;;;;22.60;11.25;;;;;;;;;;4954385;28;20063;-74
2024/01/09 05:27:48;;;;;;;24.45;11.50;;;;;;;;;;4955508;28;20491;-75
2024/01/09 05:30:14;;;;;;;24.83;10.68;;;;;;;;;;4954915;29;20031;-75
2024/01/09 05:32:40;;;;;;;23.58;10.15;;;;;;;;;;4955078;28;20035;-77
2024/01/09 05:35:08;;;;;;;23.10;9.85;;;;;;;;;;4954495;28;20049;-76
2024/01/09 05:37:34;;;;;;;24.75;11.23;;;;;;;;;;4946349;29;20015;-75
2024/01/09 05:40:00;;;;;;;22.38;10.27;;;;;;;;;;4954892;29;20417;-75
2024/01/09 05:42:26;;;;;;;22.73;10.60;;;;;;;;;;4955129;28;20473;-76
2024/01/09 05:44:52;;;;;;;26.55;10.63;;;;;;;;;;4955312;28;20027;-75
2024/01/09 05:47:18;;;;;;;25.50;10.98;;;;;;;;;;4953876;28;20267;-75
2024/01/09 05:49:44;;;;;;;22.67;9.70;;;;;;;;;;4955183;29;20422;-75
2024/01/09 05:52:10;;;;;;;23.25;10.40;;;;;;;;;;4953760;28;20027;-74
2024/01/09 05:54:36;;;;;;;24.60;9.80;;;;;;;;;;4955019;29;20103;-75
2024/01/09 05:57:02;;;;;;;25.33;10.98;;;;;;;;;;4954506;28;20358;-74
2024/01/09 05:59:28;;;;;;;21.92;9.85;;;;;;;;;;4954609;28;20050;-74
2024/01/09 06:01:54;;;;;;;23.98;10.43;;;;;;;;;;4954987;29;20396;-75
2024/01/09 06:04:20;;;;;;;23.92;11.82;;;;;;;;;;4953631;29;20027;-75
2024/01/09 06:06:46;;;;;;;22.40;10.85;;;;;;;;;;4954852;28;20489;-75
2024/01/09 06:09:12;;;;;;;27.67;10.70;;;;;;;;;;4953563;28;20039;-75
2024/01/09 06:11:38;;;;;;;26.33;9.95;;;;;;;;;;4954742;28;20031;-75
2024/01/09 06:14:04;;;;;;;20.85;8.98;;;;;;;;;;4953699;28;20464;-75
2024/01/09 06:16:30;;;;;;;26.17;10.55;;;;;;;;;;4954707;28;20380;-74
2024/01/09 06:18:57;;;;;;;21.80;10.55;;;;;;;;;;4954528;28;20028;-75
2024/01/09 06:21:23;;;;;;;24.02;10.75;;;;;;;;;;4952637;28;20055;-74
2024/01/09 06:23:49;;;;;;;24.58;10.85;;;;;;;;;;4954003;29;20428;-75
2024/01/09 06:26:15;;;;;;;26.25;10.88;;;;;;;;;;4953870;28;20035;-75
2024/01/09 06:28:42;;;;;;;22.73;10.05;;;;;;;;;;4953545;29;20468;-75
2024/01/09 06:31:08;;;;;;;26.13;11.13;;;;;;;;;;4953916;28;20047;-75
2024/01/09 06:33:34;;;;;;;22.00;9.68;;;;;;;;;;4947744;28;20109;-74
2024/01/09 06:36:00;;;;;;;25.30;10.55;;;;;;;;;;4959011;28;20105;-74
2024/01/09 06:38:27;;;;;;;24.27;10.60;;;;;;;;;;4952445;29;20034;-74
2024/01/09 06:40:53;;;;;;;31.27;10.43;;;;;;;;;;4955400;28;20504;-75
2024/01/09 06:43:18;;;;;;;26.63;11.07;;;-7.30;99.90;;;;;;4949673;28;20114;-74
2024/01/09 06:45:44;;;;;;;24.20;10.95;;;-7.30;99.90;;;;;;4952910;28;20102;-74
2024/01/09 06:48:09;;;;;;;25.95;10.75;;;-7.50;99.90;;;;;;4951918;29;20044;-74
2024/01/09 06:50:35;;;;;;;23.10;10.45;;;-7.60;99.90;;;;;;4958438;28;20031;-73
2024/01/09 06:53:01;;;;;;;24.25;10.77;;;-7.60;99.90;;;;;;4961028;28;20106;-73
2024/01/09 06:55:26;;;;;;;27.67;10.90;;;-7.70;99.90;;;;;;4960636;29;20027;-73
2024/01/09 06:57:52;;;;;;;27.38;10.73;;;-7.80;99.90;;;;;;4953410;28;20487;-75
2024/01/09 07:00:21;;;;;;;23.50;10.48;;;-7.80;99.90;;;;;;4953018;28;20270;-77
2024/01/09 07:02:47;;;;;;;23.30;10.48;;;-7.90;99.90;;;;;;4956829;28;20047;-76
2024/01/09 07:05:13;;;;;;;28.60;11.35;;;-7.70;99.90;;;;;;4959684;28;20035;-79
2024/01/09 07:07:39;;;;;;;29.38;10.55;;;;;;;;;;4955587;28;20046;-77
2024/01/09 07:10:05;;;;;;;31.33;11.13;;;;;;;;;;4953756;28;20384;-82
2024/01/09 07:12:31;;;;;;;27.88;12.18;;;;;;;;;;4952793;28;20696;-77
2024/01/09 07:14:58;;;;;;;28.45;12.88;;;;;;;;;;4953426;28;20027;-81
2024/01/09 07:17:24;;;;;;;28.00;11.82;;;;;;;;;;4952451;28;20030;-73
2024/01/09 07:19:50;;;;;;;28.50;11.77;;;;;;;;;;4953023;28;20027;-74
2024/01/09 07:22:16;;;;;;;23.65;11.00;;;;;;;;;;4952518;28;20103;-76
2024/01/09 07:24:42;;;;;;;23.35;10.65;;;;;;;;;;4953330;28;20445;-76
2024/01/09 07:27:08;;;;;;;26.45;11.25;;;;;;;;;;4952520;28;20086;-77
2024/01/09 07:29:34;;;;;;;25.83;12.07;;;;;;;;;;4953944;28;20461;-78
2024/01/09 07:32:00;;;;;;;23.80;10.32;;;;;;;;;;4952739;28;20019;-77
2024/01/09 07:34:26;;;;;;;24.50;10.27;;;;;;;;;;4945344;29;20127;-80
2024/01/09 07:36:52;;;;;;;24.02;10.88;;;;;;;;;;4953033;28;20031;-78
2024/01/09 07:39:19;;;;;;;24.92;10.30;;;;;;;;;;4948019;28;20031;-79
2024/01/09 07:41:45;;;;;;;27.50;11.77;;;;;;;;;;4952496;28;20026;-78
2024/01/09 07:44:11;;;;;;;26.70;11.20;;;;;;;;;;4952473;28;20027;-77
2024/01/09 07:46:38;;;;;;;27.05;10.13;;;;;;;;;;4953486;28;20412;-76
2024/01/09 07:49:04;;;;;;;25.75;11.13;;;;;;;;;;4952593;28;20023;-76
2024/01/09 07:51:29;;;;;;;23.98;10.38;;;;;;;;;;4944247;28;20038;-78
2024/01/09 07:53:56;;;;;;;25.77;10.95;;;;;;;;;;4953306;28;20461;-78
2024/01/09 07:56:22;;;;;;;27.58;11.55;;;;;;;;;;4952416;28;20027;-78
2024/01/09 07:58:48;;;;;;;27.42;11.60;;;;;;;;;;4952748;28;20027;-77
2024/01/09 08:01:14;;;;;;;29.02;11.63;;;;;;;;;;4952065;28;20543;-78
2024/01/09 08:03:41;;;;;;;26.45;12.85;;;;;;;;;;4940338;29;20044;-79
2024/01/09 08:06:14;;;;;;;27.45;11.98;;;;;;;;;;4933130;29;20115;-77
2024/01/09 08:08:40;;;;;;;27.10;10.73;;;;;;;;;;4933921;29;20449;-78
2024/01/09 08:11:07;;;;;;;25.42;11.02;;;;;;;;;;4933594;29;20346;-78
2024/01/09 08:13:33;;;;;;;28.70;10.40;;;;;;;;;;4933161;29;20123;-78
2024/01/09 08:15:59;;;;;;;29.23;12.00;;;;;;;;;;4933538;29;20020;-74
2024/01/09 08:18:25;;;;;;;26.17;11.07;;;;;;;;;;4933863;29;20028;-78
2024/01/09 08:20:51;;;;;;;28.58;12.02;;;;;;;;;;4933976;29;20032;-77
2024/01/09 08:23:17;;;;;;;28.52;11.35;;;;;;;;;;4932981;29;20039;-79
2024/01/09 08:25:43;;;;;;;27.48;11.88;;;;;;;;;;4934418;29;20115;-79
2024/01/09 08:28:09;;;;;;;26.05;11.55;;;;;;;;;;4932964;29;20050;-77
2024/01/09 08:30:36;;;;;;;28.25;11.73;;;;;;;;;;4933941;29;20114;-78
2024/01/09 08:33:02;;;;;;;28.35;11.40;;;-6.80;99.90;;;;;;4931943;29;20098;-76
2024/01/09 08:35:27;;;;;;;24.45;10.98;;;-6.80;99.90;;;;;;4933758;29;20127;-78
2024/01/09 08:37:53;;;;;;;25.42;11.52;;;-6.70;99.90;;;;;;4934312;29;20043;-79
2024/01/09 08:40:18;;;;;;;26.00;10.95;;;-6.60;99.90;;;;;;4917590;29;20036;-75
2024/01/09 08:42:44;;;;;;;32.08;11.95;;;-6.50;99.90;;;;;;4933123;29;20028;-79
2024/01/09 08:45:11;;;;;;;25.98;10.77;;;-6.40;99.90;;;;;;4936992;29;20051;-79
2024/01/09 08:47:37;;;;;;;28.83;12.75;;;;;;;;;;4934915;29;20512;-80
2024/01/09 08:50:04;;;;;;;28.08;10.80;;;-6.50;99.90;;;;;;4933689;29;20030;-79
2024/01/09 08:52:30;;;;;;;26.40;11.55;;;-6.00;99.90;;;;;;4933027;29;20493;-78
2024/01/09 08:54:56;;;;;;;31.05;11.98;;;-6.00;99.90;;;;;;4916351;29;20046;-78
2024/01/09 08:57:22;;;;;;;26.30;12.05;;;-5.90;99.90;;;;;;4932511;29;20031;-79
2024/01/09 08:59:48;;;;;;;25.92;11.18;;;-5.80;99.90;;;;;;4934609;29;20431;-79
2024/01/09 09:02:14;;;;;;;26.45;11.75;;;;;;;;;;4938522;29;20130;-79
2024/01/09 09:04:41;;;;;;;28.38;11.80;;;;;;;;;;4953032;28;20402;-79
2024/01/09 09:07:07;;;;;;;28.70;12.20;;;;;;;;;;4953721;28;20039;-78
2024/01/09 09:09:35;;;;;;;27.73;13.30;;;;;;;;;;4944158;29;20469;-77
2024/01/09 09:12:01;;;;;;;27.73;11.70;;;;;;;;;;4953079;28;20031;-72
2024/01/09 09:14:27;;;;;;;29.70;11.35;;;;;;;;;;4952327;28;20082;-76
2024/01/09 09:16:53;;;;;;;31.42;12.18;;;;;;;;;;4952977;28;20054;-77
2024/01/09 09:19:22;;;;;;;25.15;11.32;;;;;;;;;;4951788;28;20055;-76
2024/01/09 09:21:48;;;;;;;28.33;11.97;;;;;;;;;;4952462;28;20030;-75
2024/01/09 09:24:14;;;;;;;31.80;12.45;;;;;;;;;;4950797;28;20035;-80
2024/01/09 09:26:40;;;;;;;28.63;12.48;;;;;;;;;;4953661;28;20027;-77
2024/01/09 09:29:06;;;;;;;29.63;10.68;;;;;;;;;;4955575;28;20497;-75
2024/01/09 09:31:32;;;;;;;28.73;11.90;;;;;;;;;;4955785;28;20023;-77
2024/01/09 09:33:58;;;;;;;26.00;12.00;;;;;;;;;;4955601;29;20023;-79
2024/01/09 09:36:24;;;;;;;25.05;11.77;;;;;;;;;;4956907;29;20489;-79
2024/01/09 09:38:53;;;;;;;27.02;11.77;;;;;;;;;;4956214;28;20377;-79
2024/01/09 09:41:23;;;;;;;26.08;11.57;;;;;;;;;;4955943;28;20027;-78
2024/01/09 09:43:52;;;;;;;;;;;;;;;;;;4955796;28;20507;-79
2024/01/09 09:46:23;;;;;;;25.13;10.60;;;;;;;;;;4955211;28;19914;-80
2024/01/09 09:48:51;;;;;;;28.92;11.93;;;;;;;;;;4955715;28;20498;-76
2024/01/09 09:51:17;;;;;;;25.42;10.55;;;;;;;;;;4955130;28;20027;-79
2024/01/09 09:53:43;;;;;;;28.15;11.20;;;;;;;;;;4955510;29;20438;-78
2024/01/09 09:56:10;;;;;;;29.75;11.68;;;;;;;;;;4954873;28;20023;-79
2024/01/09 09:58:36;;;;;;;24.63;11.05;;;;;;;;;;4954336;28;20405;-78
2024/01/09 10:01:02;;;;;;;29.77;13.45;;;;;;;;;;4955017;28;20026;-75
2024/01/09 10:03:34;;;;;;;43.03;12.00;;;;;;;;;;4954322;28;20146;-75
2024/01/09 10:06:04;;;;;;;26.33;12.13;;;;;;;;;;4955715;28;20027;-73
2024/01/09 10:08:32;;;;;;;24.27;11.05;;;;;;;;;;4955442;28;20031;-78
2024/01/09 10:10:58;;;;;;;23.25;10.80;;;;;;;;;;4954620;28;20507;-77
2024/01/09 10:13:24;;;;;;;25.95;10.88;;;;;;;;;;4953919;29;20110;-77
2024/01/09 10:15:56;;;;;;;26.02;11.90;;;;;;;;;;4953729;28;20051;-76
2024/01/09 10:18:22;;;;;;;29.02;11.38;;;;;;;;;;4954246;28;20023;-76
2024/01/09 10:20:48;;;;;;;26.65;12.13;;;;;;;;;;4954161;28;20110;-78
2024/01/09 10:23:15;;;;;;;25.23;11.85;;;;;;;;;;4954200;28;20106;-80
2024/01/09 10:25:41;;;;;;;25.10;11.35;;;;;;;;;;4956337;29;20023;-82
2024/01/09 10:28:08;;;;;;;22.65;11.02;;;;;;;;;;4957988;29;20087;-83
2024/01/09 10:30:35;;;;;;;22.52;11.27;;;;;;;;;;4961703;28;20035;-87
2024/01/09 10:33:01;;;;;;;23.88;11.77;;;;;;;;;;4965699;28;20473;-81
2024/01/09 10:35:27;;;;;;;26.30;12.10;;;;;;;;;;4954180;28;20476;-80
2024/01/09 10:37:53;;;;;;;24.15;11.45;;;;;;;;;;4953412;28;20115;-79
2024/01/09 10:40:25;;;;;;;26.00;10.80;;;;;;;;;;4955308;28;20207;-80
2024/01/09 10:42:51;;;;;;;25.70;12.18;;;;;;;;;;4954136;29;20481;-77
2024/01/09 10:45:20;;;;;;;25.02;11.15;;;;;;;;;;4953799;28;20062;-80
2024/01/09 10:47:46;;;;;;;25.67;12.65;;;;;;;;;;4954348;29;20031;-79
2024/01/09 10:50:12;;;;;;;24.77;10.65;;;;;;;;;;4953645;28;20079;-76
2024/01/09 10:52:38;;;;;;;27.30;12.18;;;;;;;;;;4955118;29;20098;-79
2024/01/09 10:55:08;;;;;;;22.08;11.50;;;-2.60;99.90;;;;;;4952580;28;20039;-77
2024/01/09 10:57:35;;;;;;;24.50;11.35;;;-2.40;99.90;;;;;;4952599;28;20030;-77
2024/01/09 11:00:04;;;;;;;24.48;10.52;;;-2.50;99.90;;;;;;4953491;28;20024;-76
2024/01/09 11:02:36;;;;;;;30.25;11.73;;;-2.40;99.90;;;;;;4953374;28;20086;-77
2024/01/09 11:05:08;;;;;;;22.27;10.38;;;-2.30;99.90;;;;;;4953502;28;20026;-78
2024/01/09 11:07:34;;;;;;;29.50;11.75;;;-2.30;99.90;;;;;;4953646;29;20047;-76
2024/01/09 11:10:06;;;;;;;22.27;11.07;;;-2.20;99.90;;;;;;4953769;28;20458;-74
2024/01/09 11:12:38;;;;;;;24.60;10.50;;;-2.20;99.90;;;;;;4953717;28;20027;-78
2024/01/09 11:15:16;;;;;;;24.45;11.60;;;-2.20;99.90;;;;;;4953005;28;20031;-77
2024/01/09 11:17:56;;;;;;;24.77;11.70;;;-2.20;99.90;;;;;;4944219;29;20027;-78
2024/01/09 11:20:21;;;;;;;23.52;10.90;;;-2.20;99.90;;;;;;4952232;28;20207;-81
2024/01/09 11:22:47;;;;;;;22.27;10.27;;;-2.10;99.90;;;;;;4953934;28;20039;-77
2024/01/09 11:25:22;;;;;;;22.65;11.05;;;-2.00;99.90;;;;;;4953023;28;20127;-78
2024/01/09 11:27:49;;;;;;;22.75;10.38;;;-1.90;99.90;;;;;;4946158;28;20035;-78
2024/01/09 11:30:17;;;;;;;24.40;10.90;;;-1.80;99.90;;;;;;4951471;28;20031;-77
2024/01/09 11:32:43;;;;;;;21.55;9.93;;;-1.80;99.90;;;;;;4951943;28;20023;-77
2024/01/09 11:35:16;;;;;;;26.17;11.45;;;-1.80;99.90;;;;;;4951153;28;20027;-78
2024/01/09 11:37:43;;;;;;;24.20;11.32;;;-1.90;99.90;;;;;;4950602;28;20059;-76
2024/01/09 11:40:11;;;;;;;21.90;10.77;;;-1.80;99.90;;;;;;4946372;28;20020;-79
2024/01/09 11:42:38;;;;;;;22.42;10.40;;;-1.80;99.90;;;;;;4952570;29;20039;-77
2024/01/09 11:45:07;;;;;;;21.55;10.00;;;-1.80;99.90;;;;;;4952547;28;20043;-79
2024/01/09 11:47:36;;;;;;;23.23;10.65;;;-1.60;99.90;;;;;;4950456;28;20039;-79
2024/01/09 11:50:05;;;;;;;20.60;10.40;;;-1.60;99.90;;;;;;4951995;28;20461;-76
2024/01/09 11:52:31;;;;;;;22.85;11.02;;;-1.40;99.90;;;;;;4952549;28;20110;-79
2024/01/09 11:54:57;;;;;;;22.85;10.18;;;-1.40;99.90;;;;;;4952428;29;20481;-78
2024/01/09 11:57:23;;;;;;;33.95;12.90;;;-1.40;99.90;;;;;;4951490;28;20078;-78
2024/01/09 11:59:48;;;;;;;20.85;10.63;;;-1.40;99.90;;;;;;4953891;28;20031;-79
2024/01/09 12:02:17;;;;;;;21.63;9.88;;;-1.40;99.90;;;;;;4951588;28;20411;-78
2024/01/09 12:04:44;;;;;;;23.30;10.37;;;-1.30;99.90;;;;;;4953222;28;20035;-79
2024/01/09 12:07:11;;;;;;;22.90;10.85;;;-1.30;99.90;;;;;;4951617;28;20046;-76
2024/01/09 12:09:37;;;;;;;23.33;10.32;;;-1.30;99.90;;;;;;4967427;28;20031;-77
2024/01/09 12:12:07;;;;;;;23.63;11.15;;;-1.20;99.90;;;;;;4952053;28;20098;-75
2024/01/09 12:14:33;;;;;;;;;;;-1.10;99.90;;;;;;4953365;28;20042;-76
2024/01/09 12:16:58;;;;;;;21.15;9.68;;;-1.00;99.90;;;;;;4952758;28;19906;-74
2024/01/09 12:19:24;;;;;;;22.65;10.65;;;-1.00;99.90;;;;;;4952582;28;20031;-77
2024/01/09 12:21:49;;;;;;;25.65;11.25;;;-0.90;99.90;;;;;;4951828;28;20067;-77
2024/01/09 12:24:15;;;;;;;20.75;9.93;;;-0.90;99.90;;;;;;4956042;28;20042;-77
2024/01/09 12:26:42;;;;;;;20.48;9.90;;;-0.90;99.90;;;;;;4963636;28;20043;-82
2024/01/09 12:29:08;;;;;;;20.70;10.15;;;-0.80;99.90;;;;;;4959710;28;20491;-75
2024/01/09 12:31:34;;;;;;;23.50;10.73;;;-0.90;99.90;;;;;;4957993;28;20031;-78
2024/01/09 12:33:59;;;;;;;16.38;8.68;;;-0.90;99.90;;;;;;4955686;28;20388;-75
2024/01/09 12:36:27;;;;;;;18.25;9.63;;;-0.80;99.90;;;;;;4954510;29;20032;-74
2024/01/09 12:38:54;;;;;;;19.33;9.20;;;-0.80;99.90;;;;;;4952455;28;20038;-77
2024/01/09 12:41:23;;;;;;;17.27;9.73;;;-0.70;99.90;;;;;;4963595;28;20255;-76
2024/01/09 12:43:50;;;;;;;20.60;9.55;;;-0.70;99.90;;;;;;4951115;29;20027;-86
2024/01/09 12:46:16;;;;;;;23.27;9.32;;;-0.60;99.90;;;;;;4952595;28;20034;-79
2024/01/09 12:48:44;;;;;;;20.33;9.48;;;-0.60;99.90;;;;;;4952427;28;20031;-81
2024/01/09 12:51:10;;;;;;;20.45;9.38;;;-0.60;99.90;;;;;;4951935;28;20035;-77
2024/01/09 12:53:36;;;;;;;21.98;9.52;;;-0.60;99.90;;;;;;4952362;29;20151;-77
2024/01/09 12:56:03;;;;;;;24.02;10.95;;;-0.60;99.90;;;;;;4952433;28;20050;-72
2024/01/09 12:58:29;;;;;;;21.30;10.00;;;-0.60;99.90;;;;;;4952729;28;20055;-78
2024/01/09 13:00:54;;;;;;;22.13;10.25;;;-0.60;99.90;;;;;;4953340;28;20118;-78
2024/01/09 13:03:20;;;;;;;21.45;9.73;;;-0.60;99.90;;;;;;4954446;28;20051;-77
2024/01/09 13:05:46;;;;;;;19.20;8.85;;;-0.50;99.90;;;;;;4955857;28;20035;-80
2024/01/09 13:08:11;;;;;;;22.40;9.77;;;-0.50;99.90;;;;;;4955022;29;20444;-78
2024/01/09 13:10:37;;;;;;;18.52;10.20;;;-0.50;99.90;;;;;;4956343;28;20027;-81
2024/01/09 13:13:02;;;;;;;22.33;9.45;;;-0.50;99.90;;;;;;4955118;28;20051;-73
2024/01/09 13:15:28;;;;;;;21.30;9.95;;;-0.50;99.90;;;;;;4954825;29;20126;-81
2024/01/09 13:17:54;;;;;;;21.55;10.48;;;-0.50;99.90;;;;;;4955214;29;20054;-78
2024/01/09 13:20:21;;;;;;;15.88;8.63;;;-0.40;99.90;;;;;;4955498;29;20098;-81
2024/01/09 13:22:47;;;;;;;19.63;10.13;;;-0.30;99.90;;;;;;4955339;28;20445;-81
2024/01/09 13:25:13;;;;;;;18.30;9.00;;;-0.40;99.90;;;;;;4955336;28;20067;-81
2024/01/09 13:27:38;;;;;;;19.35;8.50;;;-0.20;99.90;;;;;;4956089;29;20532;-81
2024/01/09 13:30:04;;;;;;;23.38;10.32;;;-0.20;99.90;;;;;;4955460;28;20381;-81
2024/01/09 13:32:30;;;;;;;19.75;9.07;;;-0.30;99.90;;;;;;4955638;28;20089;-81
2024/01/09 13:34:56;;;;;;;22.45;9.48;;;-0.30;99.90;;;;;;4955938;28;20031;-79
2024/01/09 13:37:21;;;;;;;20.80;9.13;;;-0.20;99.90;;;;;;4954317;28;20102;-80
2024/01/09 13:39:47;;;;;;;22.13;9.10;;;-0.20;99.90;;;;;;4956200;28;20031;-80
2024/01/09 13:42:13;;;;;;;19.20;9.35;;;-0.20;99.90;;;;;;4954286;29;20098;-80